sensor_id;sensor_type;location;lat;lon;timestamp;pressure;altitude;pressure_sealevel;temperature;humidity
59029;BME280;45919;51.420;5.454;2022-09-09T00:00:44;100666.72;;;15.57;86.07
59029;BME280;45919;51.420;5.454;2022-09-09T00:02:01;100645.72;;;15.51;86.06
59029;BME280;45919;51.420;5.454;2022-09-09T00:03:12;100662.31;;;15.59;86.44
59029;BME280;45919;51.420;5.454;2022-09-09T00:05:36;100658.84;;;15.52;86.31
59029;BME280;45919;51.420;5.454;2022-09-09T00:06:48;100541.00;;;14.80;86.24
59029;BME280;45919;51.420;5.454;2022-09-09T00:07:53;100640.56;;;15.37;86.32
59029;BME280;45919;51.420;5.454;2022-09-09T00:09:05;100658.94;;;15.46;86.40
59029;BME280;45919;51.420;5.454;2022-09-09T00:11:54;100658.03;;;15.47;86.95
59029;BME280;45919;51.420;5.454;2022-09-09T00:12:59;100662.38;;;15.53;86.43
59029;BME280;45919;51.420;5.454;2022-09-09T00:14:03;100655.44;;;15.42;86.34
59029;BME280;45919;51.420;5.454;2022-09-09T00:15:14;100657.16;;;15.47;86.65
59029;BME280;45919;51.420;5.454;2022-09-09T00:16:22;100656.31;;;15.41;86.32
59029;BME280;45919;51.420;5.454;2022-09-09T00:19:00;100651.88;;;15.47;86.43
59029;BME280;45919;51.420;5.454;2022-09-09T00:20:12;100624.00;;;15.25;86.83
59029;BME280;45919;51.420;5.454;2022-09-09T00:21:16;100646.69;;;15.36;86.70
59029;BME280;45919;51.420;5.454;2022-09-09T00:22:20;100652.88;;;15.35;86.78
59029;BME280;45919;51.420;5.454;2022-09-09T00:23:29;100651.09;;;15.37;86.60
59029;BME280;45919;51.420;5.454;2022-09-09T00:26:59;100619.66;;;15.20;86.79
59029;BME280;45919;51.420;5.454;2022-09-09T00:28:02;100640.41;;;15.54;86.63
59029;BME280;45919;51.420;5.454;2022-09-09T00:30:20;100642.28;;;15.41;86.93
59029;BME280;45919;51.420;5.454;2022-09-09T00:31:27;100648.47;;;15.37;86.76
59029;BME280;45919;51.420;5.454;2022-09-09T00:32:30;100647.63;;;15.33;86.94
59029;BME280;45919;51.420;5.454;2022-09-09T00:33:32;100640.59;;;15.30;87.16
59029;BME280;45919;51.420;5.454;2022-09-09T00:34:34;100641.50;;;15.29;87.02
59029;BME280;45919;51.420;5.454;2022-09-09T00:37:15;100635.34;;;15.30;86.86
59029;BME280;45919;51.420;5.454;2022-09-09T00:38:24;100637.97;;;15.32;87.16
59029;BME280;45919;51.420;5.454;2022-09-09T00:39:46;100639.66;;;15.39;87.24
59029;BME280;45919;51.420;5.454;2022-09-09T00:41:11;100637.00;;;15.41;87.07
59029;BME280;45919;51.420;5.454;2022-09-09T00:42:24;100623.97;;;15.27;87.08
59029;BME280;45919;51.420;5.454;2022-09-09T00:43:28;100636.25;;;15.26;87.14
59029;BME280;45919;51.420;5.454;2022-09-09T00:44:33;100636.25;;;15.26;87.14
59029;BME280;45919;51.420;5.454;2022-09-09T00:46:56;100631.84;;;15.30;87.62
59029;BME280;45919;51.420;5.454;2022-09-09T00:48:06;100624.00;;;15.24;87.45
59029;BME280;45919;51.420;5.454;2022-09-09T00:50:53;100629.19;;;15.35;87.87
59029;BME280;45919;51.420;5.454;2022-09-09T00:54:47;100632.75;;;15.23;88.08
59029;BME280;45919;51.420;5.454;2022-09-09T00:56:18;100627.44;;;15.30;88.15
59029;BME280;45919;51.420;5.454;2022-09-09T00:57:30;100628.38;;;15.23;88.29
59029;BME280;45919;51.420;5.454;2022-09-09T00:58:32;100612.72;;;15.08;88.02
59029;BME280;45919;51.420;5.454;2022-09-09T00:59:47;100622.31;;;15.15;87.87
59029;BME280;45919;51.420;5.454;2022-09-09T01:00:53;100621.38;;;15.19;87.82
59029;BME280;45919;51.420;5.454;2022-09-09T01:01:58;100624.94;;;15.16;87.80
59029;BME280;45919;51.420;5.454;2022-09-09T01:04:29;100630.16;;;15.21;88.66
59029;BME280;45919;51.420;5.454;2022-09-09T01:06:45;100627.59;;;15.15;88.24
59029;BME280;45919;51.420;5.454;2022-09-09T01:07:53;100625.81;;;15.14;88.57
59029;BME280;45919;51.420;5.454;2022-09-09T01:09:06;100627.53;;;15.20;88.44
59029;BME280;45919;51.420;5.454;2022-09-09T01:10:29;100625.78;;;15.20;88.79
59029;BME280;45919;51.420;5.454;2022-09-09T01:12:12;100623.09;;;15.29;88.81
59029;BME280;45919;51.420;5.454;2022-09-09T01:13:24;100621.38;;;15.19;88.76
59029;BME280;45919;51.420;5.454;2022-09-09T01:15:38;100622.34;;;15.10;89.24
59029;BME280;45919;51.420;5.454;2022-09-09T01:16:44;100617.09;;;15.09;89.08
59029;BME280;45919;51.420;5.454;2022-09-09T01:18:08;100623.13;;;15.22;89.65
59029;BME280;45919;51.420;5.454;2022-09-09T01:20:03;100620.56;;;15.12;89.42
59029;BME280;45919;51.420;5.454;2022-09-09T01:22:33;100617.09;;;15.07;89.60
59029;BME280;45919;51.420;5.454;2022-09-09T01:24:08;100621.41;;;15.16;89.58
59029;BME280;45919;51.420;5.454;2022-09-09T01:26:43;100618.00;;;15.08;89.77
59029;BME280;45919;51.420;5.454;2022-09-09T01:27:46;100611.03;;;14.96;89.89
59029;BME280;45919;51.420;5.454;2022-09-09T01:28:50;100614.53;;;14.99;89.68
59029;BME280;45919;51.420;5.454;2022-09-09T01:29:55;100615.44;;;14.97;89.74
59029;BME280;45919;51.420;5.454;2022-09-09T01:30:58;100566.47;;;14.70;89.95
59029;BME280;45919;51.420;5.454;2022-09-09T01:32:35;100590.94;;;14.87;89.66
59029;BME280;45919;51.420;5.454;2022-09-09T01:33:23;100614.53;;;14.98;89.75
59029;BME280;45919;51.420;5.454;2022-09-09T01:34:27;100609.28;;;14.98;90.15
59029;BME280;45919;51.420;5.454;2022-09-09T01:35:55;100617.09;;;15.09;89.87
59029;BME280;45919;51.420;5.454;2022-09-09T01:37:03;100609.16;;;15.15;89.56
59029;BME280;45919;51.420;5.454;2022-09-09T01:38:06;100611.94;;;14.94;89.52
59029;BME280;45919;51.420;5.454;2022-09-09T01:39:08;100617.22;;;14.91;89.97
59029;BME280;45919;51.420;5.454;2022-09-09T01:40:09;100611.94;;;14.90;90.44
59029;BME280;45919;51.420;5.454;2022-09-09T01:41:11;100604.97;;;14.87;90.49
59029;BME280;45919;51.420;5.454;2022-09-09T01:42:15;100608.47;;;14.86;90.11
59029;BME280;45919;51.420;5.454;2022-09-09T01:43:19;100601.47;;;14.87;90.57
59029;BME280;45919;51.420;5.454;2022-09-09T01:44:21;100609.38;;;14.85;90.82
59029;BME280;45919;51.420;5.454;2022-09-09T01:45:23;100598.81;;;14.87;90.54
59029;BME280;45919;51.420;5.454;2022-09-09T01:46:26;100604.09;;;14.85;90.76
59029;BME280;45919;51.420;5.454;2022-09-09T01:47:29;100605.84;;;14.85;90.93
59029;BME280;45919;51.420;5.454;2022-09-09T01:48:31;100596.22;;;14.80;90.83
59029;BME280;45919;51.420;5.454;2022-09-09T01:49:33;100580.50;;;14.73;91.23
59029;BME280;45919;51.420;5.454;2022-09-09T01:50:35;100597.97;;;14.83;90.85
59029;BME280;45919;51.420;5.454;2022-09-09T01:51:37;100600.59;;;14.83;91.04
59029;BME280;45919;51.420;5.454;2022-09-09T01:52:40;100598.00;;;14.81;90.99
59029;BME280;45919;51.420;5.454;2022-09-09T01:53:45;100593.56;;;14.79;90.81
59029;BME280;45919;51.420;5.454;2022-09-09T01:54:47;100598.88;;;14.82;90.86
59029;BME280;45919;51.420;5.454;2022-09-09T01:57:23;100586.56;;;14.87;91.24
59029;BME280;45919;51.420;5.454;2022-09-09T01:58:49;100592.63;;;14.96;91.32
59029;BME280;45919;51.420;5.454;2022-09-09T02:00:11;100590.03;;;14.91;91.30
59029;BME280;45919;51.420;5.454;2022-09-09T02:04:22;100561.19;;;14.72;91.23
59029;BME280;45919;51.420;5.454;2022-09-09T02:05:41;100583.03;;;14.91;91.53
59029;BME280;45919;51.420;5.454;2022-09-09T02:06:47;100587.47;;;14.80;91.08
59029;BME280;45919;51.420;5.454;2022-09-09T02:07:52;100540.28;;;14.56;91.51
59029;BME280;45919;51.420;5.454;2022-09-09T02:08:57;100585.69;;;14.79;91.47
59029;BME280;45919;51.420;5.454;2022-09-09T02:10:22;100583.03;;;14.91;91.75
59029;BME280;45919;51.420;5.454;2022-09-09T02:11:27;100577.81;;;14.79;91.28
59029;BME280;45919;51.420;5.454;2022-09-09T02:12:29;100558.63;;;14.63;91.76
59029;BME280;45919;51.420;5.454;2022-09-09T02:13:35;100583.06;;;14.80;91.75
59029;BME280;45919;51.420;5.454;2022-09-09T02:14:41;100587.47;;;14.83;91.40
59029;BME280;45919;51.420;5.454;2022-09-09T02:16:00;100586.50;;;14.92;91.71
59029;BME280;45919;51.420;5.454;2022-09-09T02:17:10;100559.47;;;14.73;91.46
59029;BME280;45919;51.420;5.454;2022-09-09T02:18:13;100585.72;;;14.82;91.54
59029;BME280;45919;51.420;5.454;2022-09-09T02:19:20;100584.84;;;14.78;91.48
59029;BME280;45919;51.420;5.454;2022-09-09T02:20:27;100590.09;;;14.83;91.51
59029;BME280;45919;51.420;5.454;2022-09-09T02:21:35;100564.72;;;14.68;91.43
59029;BME280;45919;51.420;5.454;2022-09-09T02:22:39;100585.72;;;14.80;91.69
59029;BME280;45919;51.420;5.454;2022-09-09T02:23:43;100590.97;;;14.84;91.71
59029;BME280;45919;51.420;5.454;2022-09-09T02:24:49;100592.69;;;14.85;91.48
59029;BME280;45919;51.420;5.454;2022-09-09T02:25:53;100552.53;;;14.59;91.22
59029;BME280;45919;51.420;5.454;2022-09-09T02:26:58;100574.34;;;14.74;91.45
59029;BME280;45919;51.420;5.454;2022-09-09T02:28:03;100590.09;;;14.83;91.72
59029;BME280;45919;51.420;5.454;2022-09-09T02:29:14;100587.44;;;14.88;91.35
59029;BME280;45919;51.420;5.454;2022-09-09T02:30:18;100584.81;;;14.83;91.39
59029;BME280;45919;51.420;5.454;2022-09-09T02:31:22;100580.44;;;14.84;91.37
59029;BME280;45919;51.420;5.454;2022-09-09T02:32:25;100588.34;;;14.82;91.15
59029;BME280;45919;51.420;5.454;2022-09-09T02:33:31;100578.69;;;14.79;91.25
59029;BME280;45919;51.420;5.454;2022-09-09T02:34:40;100577.81;;;14.84;91.24
59029;BME280;45919;51.420;5.454;2022-09-09T02:35:44;100573.44;;;14.82;91.51
59029;BME280;45919;51.420;5.454;2022-09-09T02:36:47;100576.06;;;14.82;90.96
59029;BME280;45919;51.420;5.454;2022-09-09T02:37:52;100582.19;;;14.80;91.32
59029;BME280;45919;51.420;5.454;2022-09-09T02:38:56;100575.19;;;14.80;91.30
59029;BME280;45919;51.420;5.454;2022-09-09T02:39:58;100586.56;;;14.79;91.52
59029;BME280;45919;51.420;5.454;2022-09-09T02:40:59;100584.81;;;14.80;91.27
59029;BME280;45919;51.420;5.454;2022-09-09T02:42:05;100573.47;;;14.73;91.19
59029;BME280;45919;51.420;5.454;2022-09-09T02:43:08;100576.06;;;14.78;91.37
59029;BME280;45919;51.420;5.454;2022-09-09T02:44:11;100579.56;;;14.80;91.28
59029;BME280;45919;51.420;5.454;2022-09-09T02:45:19;100575.19;;;14.80;91.43
59029;BME280;45919;51.420;5.454;2022-09-09T02:46:36;100574.28;;;14.86;91.42
59029;BME280;45919;51.420;5.454;2022-09-09T02:47:50;100576.94;;;14.81;91.50
59029;BME280;45919;51.420;5.454;2022-09-09T02:49:23;100488.72;;;14.35;91.62
59029;BME280;45919;51.420;5.454;2022-09-09T02:50:33;100575.16;;;14.79;91.33
59029;BME280;45919;51.420;5.454;2022-09-09T02:51:45;100571.69;;;14.80;91.57
59029;BME280;45919;51.420;5.454;2022-09-09T02:53:09;100573.41;;;14.81;91.86
59029;BME280;45919;51.420;5.454;2022-09-09T02:54:22;100577.84;;;14.73;91.25
59029;BME280;45919;51.420;5.454;2022-09-09T02:55:49;100574.31;;;14.83;91.68
59029;BME280;45919;51.420;5.454;2022-09-09T02:57:01;100580.47;;;14.74;91.61
59029;BME280;45919;51.420;5.454;2022-09-09T02:58:05;100577.84;;;14.73;91.80
59029;BME280;45919;51.420;5.454;2022-09-09T02:59:09;100580.50;;;14.73;92.07
59029;BME280;45919;51.420;5.454;2022-09-09T03:00:11;100567.41;;;14.63;92.10
59029;BME280;45919;51.420;5.454;2022-09-09T03:01:13;100573.47;;;14.73;91.90
59029;BME280;45919;51.420;5.454;2022-09-09T03:02:15;100579.59;;;14.74;92.38
59029;BME280;45919;51.420;5.454;2022-09-09T03:03:18;100583.09;;;14.74;92.39
59029;BME280;45919;51.420;5.454;2022-09-09T03:04:20;100584.00;;;14.75;92.27
59029;BME280;45919;51.420;5.454;2022-09-09T03:05:22;100582.22;;;14.75;92.06
59029;BME280;45919;51.420;5.454;2022-09-09T03:06:24;100587.47;;;14.77;92.22
59029;BME280;45919;51.420;5.454;2022-09-09T03:07:26;100579.59;;;14.77;92.25
59029;BME280;45919;51.420;5.454;2022-09-09T03:08:28;100583.06;;;14.79;92.06
59029;BME280;45919;51.420;5.454;2022-09-09T03:09:30;100580.44;;;14.79;92.21
59029;BME280;45919;51.420;5.454;2022-09-09T03:10:32;100572.53;;;14.79;92.14
59029;BME280;45919;51.420;5.454;2022-09-09T03:11:34;100583.94;;;14.81;92.40
59029;BME280;45919;51.420;5.454;2022-09-09T03:12:36;100577.81;;;14.80;92.14
59029;BME280;45919;51.420;5.454;2022-09-09T03:13:37;100573.44;;;14.84;92.02
59029;BME280;45919;51.420;5.454;2022-09-09T03:14:39;100575.19;;;14.84;92.04
59029;BME280;45919;51.420;5.454;2022-09-09T03:15:41;100576.06;;;14.84;91.77
59029;BME280;45919;51.420;5.454;2022-09-09T03:16:43;100575.19;;;14.85;91.91
59029;BME280;45919;51.420;5.454;2022-09-09T03:17:44;100542.84;;;14.64;91.68
59029;BME280;45919;51.420;5.454;2022-09-09T03:18:46;100565.59;;;14.75;91.71
59029;BME280;45919;51.420;5.454;2022-09-09T03:19:47;100560.31;;;14.75;91.51
59029;BME280;45919;51.420;5.454;2022-09-09T03:20:50;100583.94;;;14.87;91.80
59029;BME280;45919;51.420;5.454;2022-09-09T03:21:52;100590.06;;;14.88;91.85
59029;BME280;45919;51.420;5.454;2022-09-09T03:22:54;100575.22;;;14.82;91.77
59029;BME280;45919;51.420;5.454;2022-09-09T03:23:56;100586.56;;;14.87;91.63
59029;BME280;45919;51.420;5.454;2022-09-09T03:24:58;100587.44;;;14.86;91.68
59029;BME280;45919;51.420;5.454;2022-09-09T03:26:00;100579.53;;;14.86;91.54
59029;BME280;45919;51.420;5.454;2022-09-09T03:27:02;100592.69;;;14.89;91.76
59029;BME280;45919;51.420;5.454;2022-09-09T03:28:03;100586.56;;;14.86;91.55
59029;BME280;45919;51.420;5.454;2022-09-09T03:29:05;100588.28;;;14.90;91.60
59029;BME280;45919;51.420;5.454;2022-09-09T03:30:08;100586.53;;;14.89;91.61
59029;BME280;45919;51.420;5.454;2022-09-09T03:31:10;100593.53;;;14.90;91.45
59029;BME280;45919;51.420;5.454;2022-09-09T03:32:12;100596.16;;;14.90;91.52
59029;BME280;45919;51.420;5.454;2022-09-09T03:33:14;100585.66;;;14.88;91.51
59029;BME280;45919;51.420;5.454;2022-09-09T03:34:17;100550.72;;;14.66;91.01
59029;BME280;45919;51.420;5.454;2022-09-09T03:35:19;100587.44;;;14.88;91.25
59029;BME280;45919;51.420;5.454;2022-09-09T03:36:20;100586.56;;;14.86;91.39
59029;BME280;45919;51.420;5.454;2022-09-09T03:37:22;100586.56;;;14.87;91.43
59029;BME280;45919;51.420;5.454;2022-09-09T03:38:24;100588.31;;;14.87;91.39
59029;BME280;45919;51.420;5.454;2022-09-09T03:39:26;100585.69;;;14.87;91.41
59029;BME280;45919;51.420;5.454;2022-09-09T03:40:27;100586.56;;;14.87;91.67
59029;BME280;45919;51.420;5.454;2022-09-09T03:41:30;100560.31;;;14.71;91.46
59029;BME280;45919;51.420;5.454;2022-09-09T03:42:31;100591.81;;;14.87;91.38
59029;BME280;45919;51.420;5.454;2022-09-09T03:43:33;100590.97;;;14.85;91.44
59029;BME280;45919;51.420;5.454;2022-09-09T03:44:35;100587.44;;;14.86;91.68
59029;BME280;45919;51.420;5.454;2022-09-09T03:45:37;100596.19;;;14.87;91.74
59029;BME280;45919;51.420;5.454;2022-09-09T03:46:38;100571.69;;;14.74;91.64
59029;BME280;45919;51.420;5.454;2022-09-09T03:47:40;100589.22;;;14.86;91.95
59029;BME280;45919;51.420;5.454;2022-09-09T03:48:41;100591.84;;;14.86;91.93
59029;BME280;45919;51.420;5.454;2022-09-09T03:49:43;100585.69;;;14.79;92.23
59029;BME280;45919;51.420;5.454;2022-09-09T03:50:49;100587.44;;;14.88;91.83
59029;BME280;45919;51.420;5.454;2022-09-09T03:51:51;100585.69;;;14.85;92.17
59029;BME280;45919;51.420;5.454;2022-09-09T03:52:52;100582.19;;;14.83;92.69
59029;BME280;45919;51.420;5.454;2022-09-09T03:53:54;100592.69;;;14.88;92.35
59029;BME280;45919;51.420;5.454;2022-09-09T03:54:59;100583.91;;;14.90;92.44
59029;BME280;45919;51.420;5.454;2022-09-09T03:56:01;100566.44;;;14.77;92.72
59029;BME280;45919;51.420;5.454;2022-09-09T03:57:03;100583.88;;;14.92;92.57
59029;BME280;45919;51.420;5.454;2022-09-09T03:58:05;100586.50;;;14.92;92.32
59029;BME280;45919;51.420;5.454;2022-09-09T03:59:07;100568.16;;;14.79;92.54
59029;BME280;45919;51.420;5.454;2022-09-09T04:00:10;100590.91;;;14.94;92.50
59029;BME280;45919;51.420;5.454;2022-09-09T04:01:12;100586.50;;;14.93;92.18
59029;BME280;45919;51.420;5.454;2022-09-09T04:02:14;100584.75;;;14.96;92.19
59029;BME280;45919;51.420;5.454;2022-09-09T04:03:17;100580.38;;;14.90;92.34
59029;BME280;45919;51.420;5.454;2022-09-09T04:04:18;100541.91;;;14.71;92.61
59029;BME280;45919;51.420;5.454;2022-09-09T04:05:21;100591.75;;;14.97;92.38
59029;BME280;45919;51.420;5.454;2022-09-09T04:06:22;100586.50;;;14.97;92.61
59029;BME280;45919;51.420;5.454;2022-09-09T04:07:24;100587.34;;;14.97;92.66
59029;BME280;45919;51.420;5.454;2022-09-09T04:08:26;100588.22;;;14.99;92.56
59029;BME280;45919;51.420;5.454;2022-09-09T04:09:28;100590.84;;;15.01;92.53
59029;BME280;45919;51.420;5.454;2022-09-09T04:10:29;100588.19;;;15.01;92.64
59029;BME280;45919;51.420;5.454;2022-09-09T04:11:31;100589.09;;;15.01;92.47
59029;BME280;45919;51.420;5.454;2022-09-09T04:12:32;100589.97;;;15.00;92.57
59029;BME280;45919;51.420;5.454;2022-09-09T04:13:35;100544.53;;;14.75;92.89
59029;BME280;45919;51.420;5.454;2022-09-09T04:14:39;100582.06;;;15.02;92.64
59029;BME280;45919;51.420;5.454;2022-09-09T04:15:40;100584.72;;;15.00;92.48
59029;BME280;45919;51.420;5.454;2022-09-09T04:16:42;100585.56;;;15.01;92.41
59029;BME280;45919;51.420;5.454;2022-09-09T04:17:45;100585.56;;;15.01;92.44
59029;BME280;45919;51.420;5.454;2022-09-09T04:18:47;100583.84;;;15.00;92.41
59029;BME280;45919;51.420;5.454;2022-09-09T04:19:49;100567.19;;;14.98;92.64
59029;BME280;45919;51.420;5.454;2022-09-09T04:20:52;100575.97;;;14.98;92.57
59029;BME280;45919;51.420;5.454;2022-09-09T04:21:54;100575.06;;;15.01;92.68
59029;BME280;45919;51.420;5.454;2022-09-09T04:22:55;100575.06;;;15.01;92.71
59029;BME280;45919;51.420;5.454;2022-09-09T04:23:57;100574.19;;;15.02;92.79
59029;BME280;45919;51.420;5.454;2022-09-09T04:24:58;100583.81;;;15.03;93.11
59029;BME280;45919;51.420;5.454;2022-09-09T04:26:01;100579.41;;;15.05;93.03
59029;BME280;45919;51.420;5.454;2022-09-09T04:27:03;100578.53;;;15.06;93.11
59029;BME280;45919;51.420;5.454;2022-09-09T04:28:04;100574.13;;;15.06;93.23
59029;BME280;45919;51.420;5.454;2022-09-09T04:29:06;100568.88;;;15.06;93.42
59029;BME280;45919;51.420;5.454;2022-09-09T04:30:09;100573.25;;;15.11;93.19
59029;BME280;45919;51.420;5.454;2022-09-09T04:31:17;100554.84;;;15.08;93.40
59029;BME280;45919;51.420;5.454;2022-09-09T04:32:19;100565.38;;;15.09;92.96
59029;BME280;45919;51.420;5.454;2022-09-09T04:33:21;100566.22;;;15.13;92.84
59029;BME280;45919;51.420;5.454;2022-09-09T04:34:22;100563.56;;;15.13;92.78
59029;BME280;45919;51.420;5.454;2022-09-09T04:35:24;100568.84;;;15.13;92.80
59029;BME280;45919;51.420;5.454;2022-09-09T04:36:26;100569.72;;;15.13;92.80
59029;BME280;45919;51.420;5.454;2022-09-09T04:37:27;100564.44;;;15.12;92.69
59029;BME280;45919;51.420;5.454;2022-09-09T04:38:29;100553.97;;;15.09;92.74
59029;BME280;45919;51.420;5.454;2022-09-09T04:39:31;100567.97;;;15.11;92.83
59029;BME280;45919;51.420;5.454;2022-09-09T04:40:33;100572.38;;;15.09;93.09
59029;BME280;45919;51.420;5.454;2022-09-09T04:41:34;100564.50;;;15.07;92.72
59029;BME280;45919;51.420;5.454;2022-09-09T04:42:36;100568.00;;;15.08;92.92
59029;BME280;45919;51.420;5.454;2022-09-09T04:43:39;100560.13;;;15.06;93.14
59029;BME280;45919;51.420;5.454;2022-09-09T04:44:40;100561.91;;;15.04;93.06
59029;BME280;45919;51.420;5.454;2022-09-09T04:45:43;100569.81;;;15.02;93.41
59029;BME280;45919;51.420;5.454;2022-09-09T04:46:45;100568.94;;;15.02;93.11
59029;BME280;45919;51.420;5.454;2022-09-09T04:47:46;100564.53;;;15.01;93.41
59029;BME280;45919;51.420;5.454;2022-09-09T04:48:49;100550.53;;;14.96;93.41
59029;BME280;45919;51.420;5.454;2022-09-09T04:49:51;100548.84;;;14.91;93.33
59029;BME280;45919;51.420;5.454;2022-09-09T04:50:55;100556.63;;;15.01;93.22
59029;BME280;45919;51.420;5.454;2022-09-09T04:51:56;100571.56;;;15.02;93.31
59029;BME280;45919;51.420;5.454;2022-09-09T04:53:04;100561.91;;;15.04;93.65
59029;BME280;45919;51.420;5.454;2022-09-09T04:54:06;100565.41;;;15.01;93.73
59029;BME280;45919;51.420;5.454;2022-09-09T04:55:08;100561.91;;;15.02;93.62
59029;BME280;45919;51.420;5.454;2022-09-09T04:56:13;100566.25;;;15.05;93.77
59029;BME280;45919;51.420;5.454;2022-09-09T04:57:15;100561.00;;;15.05;93.53
59029;BME280;45919;51.420;5.454;2022-09-09T04:58:18;100552.22;;;15.04;93.84
59029;BME280;45919;51.420;5.454;2022-09-09T04:59:22;100551.38;;;15.05;93.47
59029;BME280;45919;51.420;5.454;2022-09-09T05:00:24;100555.72;;;15.06;93.72
59029;BME280;45919;51.420;5.454;2022-09-09T05:01:26;100552.25;;;15.06;93.58
59029;BME280;45919;51.420;5.454;2022-09-09T05:02:28;100547.81;;;15.08;93.43
59029;BME280;45919;51.420;5.454;2022-09-09T05:03:31;100550.44;;;15.08;93.57
59029;BME280;45919;51.420;5.454;2022-09-09T05:04:33;100532.13;;;14.97;93.40
59029;BME280;45919;51.420;5.454;2022-09-09T05:05:35;100544.31;;;15.09;93.21
59029;BME280;45919;51.420;5.454;2022-09-09T05:06:37;100556.59;;;15.09;93.36
59029;BME280;45919;51.420;5.454;2022-09-09T05:07:39;100554.84;;;15.08;93.50
59029;BME280;45919;51.420;5.454;2022-09-09T05:08:41;100559.22;;;15.07;93.69
59029;BME280;45919;51.420;5.454;2022-09-09T05:09:43;100554.00;;;15.04;93.41
59029;BME280;45919;51.420;5.454;2022-09-09T05:10:46;100546.97;;;15.03;93.57
59029;BME280;45919;51.420;5.454;2022-09-09T05:11:48;100554.84;;;15.04;93.36
59029;BME280;45919;51.420;5.454;2022-09-09T05:12:53;100532.13;;;14.96;93.45
59029;BME280;45919;51.420;5.454;2022-09-09T05:13:55;100532.22;;;14.86;93.41
59029;BME280;45919;51.420;5.454;2022-09-09T05:14:59;100552.25;;;15.03;93.58
59029;BME280;45919;51.420;5.454;2022-09-09T05:16:01;100548.75;;;15.02;93.59
59029;BME280;45919;51.420;5.454;2022-09-09T05:17:03;100554.88;;;15.03;93.92
59029;BME280;45919;51.420;5.454;2022-09-09T05:18:05;100542.63;;;15.02;93.76
59029;BME280;45919;51.420;5.454;2022-09-09T05:19:06;100550.53;;;15.00;93.86
59029;BME280;45919;51.420;5.454;2022-09-09T05:20:09;100549.63;;;15.01;93.72
59029;BME280;45919;51.420;5.454;2022-09-09T05:21:13;100552.25;;;15.01;93.69
59029;BME280;45919;51.420;5.454;2022-09-09T05:22:21;100526.00;;;14.93;93.85
59029;BME280;45919;51.420;5.454;2022-09-09T05:23:24;100546.13;;;15.01;94.08
59029;BME280;45919;51.420;5.454;2022-09-09T05:24:25;100551.41;;;15.02;93.84
59029;BME280;45919;51.420;5.454;2022-09-09T05:25:27;100552.25;;;15.01;93.64
59029;BME280;45919;51.420;5.454;2022-09-09T05:26:29;100549.63;;;15.03;93.81
59029;BME280;45919;51.420;5.454;2022-09-09T05:27:30;100551.38;;;15.04;93.71
59029;BME280;45919;51.420;5.454;2022-09-09T05:28:34;100540.88;;;14.99;94.03
59029;BME280;45919;51.420;5.454;2022-09-09T05:29:39;100551.38;;;15.04;93.74
59029;BME280;45919;51.420;5.454;2022-09-09T05:30:42;100552.25;;;15.06;93.83
59029;BME280;45919;51.420;5.454;2022-09-09T05:31:45;100556.63;;;15.05;93.59
59029;BME280;45919;51.420;5.454;2022-09-09T05:32:46;100546.09;;;15.05;93.73
59029;BME280;45919;51.420;5.454;2022-09-09T05:33:49;100553.06;;;15.08;93.77
59029;BME280;45919;51.420;5.454;2022-09-09T05:34:50;100554.84;;;15.09;93.80
59029;BME280;45919;51.420;5.454;2022-09-09T05:36:01;100525.97;;;15.01;93.63
59029;BME280;45919;51.420;5.454;2022-09-09T05:37:03;100553.06;;;15.11;93.82
59029;BME280;45919;51.420;5.454;2022-09-09T05:38:05;100556.56;;;15.12;93.52
59029;BME280;45919;51.420;5.454;2022-09-09T05:39:07;100553.03;;;15.14;93.68
59029;BME280;45919;51.420;5.454;2022-09-09T05:40:08;100553.03;;;15.14;93.27
59029;BME280;45919;51.420;5.454;2022-09-09T05:41:13;100553.91;;;15.16;93.32
59029;BME280;45919;51.420;5.454;2022-09-09T05:42:16;100560.03;;;15.17;93.31
59029;BME280;45919;51.420;5.454;2022-09-09T05:43:19;100560.00;;;15.20;93.31
59029;BME280;45919;51.420;5.454;2022-09-09T05:44:21;100529.50;;;15.00;93.33
59029;BME280;45919;51.420;5.454;2022-09-09T05:45:25;100564.38;;;15.21;92.89
59029;BME280;45919;51.420;5.454;2022-09-09T05:46:26;100563.50;;;15.24;92.87
59029;BME280;45919;51.420;5.454;2022-09-09T05:47:28;100554.69;;;15.25;92.94
59029;BME280;45919;51.420;5.454;2022-09-09T05:48:37;100557.31;;;15.29;92.87
59029;BME280;45919;51.420;5.454;2022-09-09T05:49:39;100559.94;;;15.26;92.65
59029;BME280;45919;51.420;5.454;2022-09-09T05:50:41;100530.28;;;15.09;92.73
59029;BME280;45919;51.420;5.454;2022-09-09T05:51:43;100570.47;;;15.28;92.25
59029;BME280;45919;51.420;5.454;2022-09-09T05:52:45;100573.06;;;15.31;92.89
59029;BME280;45919;51.420;5.454;2022-09-09T05:53:48;100563.41;;;15.33;92.96
59029;BME280;45919;51.420;5.454;2022-09-09T05:54:49;100573.03;;;15.36;92.73
59029;BME280;45919;51.420;5.454;2022-09-09T05:56:01;100567.66;;;15.47;92.92
59029;BME280;45919;51.420;5.454;2022-09-09T05:57:04;100560.72;;;15.38;92.73
59029;BME280;45919;51.420;5.454;2022-09-09T05:58:07;100570.25;;;15.48;92.25
59029;BME280;45919;51.420;5.454;2022-09-09T05:59:08;100568.50;;;15.50;92.24
59029;BME280;45919;51.420;5.454;2022-09-09T06:00:10;100567.59;;;15.53;92.21
59029;BME280;45919;51.420;5.454;2022-09-09T06:01:19;100567.53;;;15.62;92.32
59029;BME280;45919;51.420;5.454;2022-09-09T06:02:21;100565.75;;;15.61;91.82
59029;BME280;45919;51.420;5.454;2022-09-09T06:03:22;100565.72;;;15.66;92.10
59029;BME280;45919;51.420;5.454;2022-09-09T06:04:24;100567.44;;;15.72;91.53
59029;BME280;45919;51.420;5.454;2022-09-09T06:05:26;100549.91;;;15.68;91.36
59029;BME280;45919;51.420;5.454;2022-09-09T06:06:34;100570.78;;;15.86;91.45
59029;BME280;45919;51.420;5.454;2022-09-09T06:12:15;100560.97;;;16.02;89.82